sensor_id;sensor_type;location;lat;lon;timestamp;pressure;altitude;pressure_sealevel;temperature;humidity
61761;BME280;47664;51.660;-0.100;2023-04-01T00:00:47;99134.11;;;7.95;75.56
61761;BME280;47664;51.660;-0.100;2023-04-01T00:03:14;99139.37;;;8.30;75.53
61761;BME280;47664;51.660;-0.100;2023-04-01T00:05:40;99137.65;;;8.54;74.50
61761;BME280;47664;51.660;-0.100;2023-04-01T00:08:07;99140.66;;;8.42;74.15
61761;BME280;47664;51.660;-0.100;2023-04-01T00:10:36;99144.74;;;7.94;74.74
61761;BME280;47664;51.660;-0.100;2023-04-01T00:13:03;99150.59;;;8.03;73.27
61761;BME280;47664;51.660;-0.100;2023-04-01T00:15:31;99153.22;;;8.68;73.87
61761;BME280;47664;51.660;-0.100;2023-04-01T00:17:58;99152.62;;;8.31;74.62
61761;BME280;47664;51.660;-0.100;2023-04-01T00:20:25;99157.40;;;7.75;75.60
61761;BME280;47664;51.660;-0.100;2023-04-01T00:22:52;99161.96;;;8.05;75.55
61761;BME280;47664;51.660;-0.100;2023-04-01T00:25:19;99167.10;;;7.78;75.36
61761;BME280;47664;51.660;-0.100;2023-04-01T00:27:46;99175.80;;;7.95;74.75
61761;BME280;47664;51.660;-0.100;2023-04-01T00:30:14;99172.33;;;7.50;75.21
61761;BME280;47664;51.660;-0.100;2023-04-01T00:32:41;99175.53;;;8.18;73.89
61761;BME280;47664;51.660;-0.100;2023-04-01T00:35:08;99180.00;;;8.21;74.54
61761;BME280;47664;51.660;-0.100;2023-04-01T00:37:37;99182.89;;;8.02;74.65
61761;BME280;47664;51.660;-0.100;2023-04-01T00:40:06;99183.36;;;7.90;74.21
61761;BME280;47664;51.660;-0.100;2023-04-01T00:42:33;99188.17;;;8.67;73.24
61761;BME280;47664;51.660;-0.100;2023-04-01T00:45:26;99191.43;;;8.17;72.88
61761;BME280;47664;51.660;-0.100;2023-04-01T00:47:54;99199.62;;;7.97;72.92
61761;BME280;47664;51.660;-0.100;2023-04-01T00:50:22;99200.60;;;7.76;73.80
61761;BME280;47664;51.660;-0.100;2023-04-01T00:52:52;99199.13;;;8.37;73.23
61761;BME280;47664;51.660;-0.100;2023-04-01T00:55:21;99201.16;;;8.13;72.02
61761;BME280;47664;51.660;-0.100;2023-04-01T00:57:51;99207.23;;;8.60;71.30
61761;BME280;47664;51.660;-0.100;2023-04-01T01:00:20;99208.74;;;8.32;70.03
61761;BME280;47664;51.660;-0.100;2023-04-01T01:02:50;99215.42;;;8.95;70.14
61761;BME280;47664;51.660;-0.100;2023-04-01T01:05:18;99219.56;;;8.57;69.93
61761;BME280;47664;51.660;-0.100;2023-04-01T01:07:55;99225.02;;;8.74;70.35
61761;BME280;47664;51.660;-0.100;2023-04-01T01:10:30;99226.38;;;7.76;72.01
61761;BME280;47664;51.660;-0.100;2023-04-01T01:13:06;99230.34;;;7.98;72.17
61761;BME280;47664;51.660;-0.100;2023-04-01T01:15:41;99233.34;;;8.13;71.45
61761;BME280;47664;51.660;-0.100;2023-04-01T01:18:18;99233.48;;;7.51;72.30
61761;BME280;47664;51.660;-0.100;2023-04-01T01:21:31;99231.32;;;8.12;71.94
61761;BME280;47664;51.660;-0.100;2023-04-01T01:24:09;99232.72;;;7.62;71.64
61761;BME280;47664;51.660;-0.100;2023-04-01T01:26:50;99239.72;;;7.75;73.33
61761;BME280;47664;51.660;-0.100;2023-04-01T01:29:33;99245.80;;;8.09;72.89
61761;BME280;47664;51.660;-0.100;2023-04-01T01:32:09;99253.20;;;8.21;72.56
61761;BME280;47664;51.660;-0.100;2023-04-01T01:34:42;99256.16;;;8.01;72.07
61761;BME280;47664;51.660;-0.100;2023-04-01T01:37:16;99257.38;;;8.17;73.03
61761;BME280;47664;51.660;-0.100;2023-04-01T01:39:50;99261.56;;;8.30;72.45
61761;BME280;47664;51.660;-0.100;2023-04-01T01:42:20;99260.45;;;8.18;71.58
61761;BME280;47664;51.660;-0.100;2023-04-01T01:44:49;99262.56;;;8.74;71.04
61761;BME280;47664;51.660;-0.100;2023-04-01T01:47:19;99264.86;;;8.76;70.72
61761;BME280;47664;51.660;-0.100;2023-04-01T01:49:48;99269.48;;;8.33;71.44
61761;BME280;47664;51.660;-0.100;2023-04-01T01:52:17;99270.68;;;8.28;70.53
61761;BME280;47664;51.660;-0.100;2023-04-01T01:54:48;99272.40;;;8.44;70.77
61761;BME280;47664;51.660;-0.100;2023-04-01T01:57:17;99280.64;;;7.72;72.15
61761;BME280;47664;51.660;-0.100;2023-04-01T01:59:47;99282.27;;;8.34;71.54
61761;BME280;47664;51.660;-0.100;2023-04-01T02:02:15;99284.82;;;8.39;71.06
61761;BME280;47664;51.660;-0.100;2023-04-01T02:04:44;99294.28;;;7.91;71.56
61761;BME280;47664;51.660;-0.100;2023-04-01T02:07:15;99295.70;;;7.44;71.52
61761;BME280;47664;51.660;-0.100;2023-04-01T02:09:46;99298.90;;;8.17;71.17
61761;BME280;47664;51.660;-0.100;2023-04-01T02:12:15;99300.50;;;7.97;71.13
61761;BME280;47664;51.660;-0.100;2023-04-01T02:14:47;99307.55;;;8.17;70.87
61761;BME280;47664;51.660;-0.100;2023-04-01T02:17:19;99309.82;;;7.74;71.57
61761;BME280;47664;51.660;-0.100;2023-04-01T02:19:51;99308.90;;;8.20;70.53
61761;BME280;47664;51.660;-0.100;2023-04-01T02:22:22;99311.05;;;7.99;71.11
61761;BME280;47664;51.660;-0.100;2023-04-01T02:24:52;99313.94;;;8.23;70.71
61761;BME280;47664;51.660;-0.100;2023-04-01T02:27:21;99316.27;;;8.11;71.02
61761;BME280;47664;51.660;-0.100;2023-04-01T02:29:48;99319.03;;;8.25;70.37
61761;BME280;47664;51.660;-0.100;2023-04-01T02:32:16;99322.41;;;8.35;69.75
61761;BME280;47664;51.660;-0.100;2023-04-01T02:34:45;99324.99;;;8.30;69.76
61761;BME280;47664;51.660;-0.100;2023-04-01T02:37:13;99328.13;;;7.78;70.04
61761;BME280;47664;51.660;-0.100;2023-04-01T02:39:41;99328.11;;;8.42;69.80
61761;BME280;47664;51.660;-0.100;2023-04-01T02:42:08;99331.16;;;8.34;69.95
61761;BME280;47664;51.660;-0.100;2023-04-01T02:44:35;99336.41;;;8.55;69.97
61761;BME280;47664;51.660;-0.100;2023-04-01T02:47:02;99336.16;;;7.88;69.60
61761;BME280;47664;51.660;-0.100;2023-04-01T02:49:29;99339.83;;;8.50;69.97
61761;BME280;47664;51.660;-0.100;2023-04-01T02:51:56;99342.91;;;8.60;70.06
61761;BME280;47664;51.660;-0.100;2023-04-01T02:54:24;99345.35;;;8.32;70.43
61761;BME280;47664;51.660;-0.100;2023-04-01T02:56:51;99346.56;;;8.07;70.82
61761;BME280;47664;51.660;-0.100;2023-04-01T02:59:18;99351.87;;;8.06;70.87
61761;BME280;47664;51.660;-0.100;2023-04-01T03:01:45;99353.10;;;8.01;70.74
61761;BME280;47664;51.660;-0.100;2023-04-01T03:04:12;99352.41;;;6.68;73.28
61761;BME280;47664;51.660;-0.100;2023-04-01T03:06:39;99356.84;;;7.37;72.96
61761;BME280;47664;51.660;-0.100;2023-04-01T03:09:06;99360.80;;;7.12;71.80
61761;BME280;47664;51.660;-0.100;2023-04-01T03:11:34;99365.81;;;7.89;70.50
61761;BME280;47664;51.660;-0.100;2023-04-01T03:14:01;99364.57;;;7.47;71.09
61761;BME280;47664;51.660;-0.100;2023-04-01T03:16:28;99366.06;;;7.69;71.59
61761;BME280;47664;51.660;-0.100;2023-04-01T03:18:56;99371.39;;;7.90;71.17
61761;BME280;47664;51.660;-0.100;2023-04-01T03:21:23;99376.51;;;7.60;70.82
61761;BME280;47664;51.660;-0.100;2023-04-01T03:23:51;99376.79;;;8.12;70.57
61761;BME280;47664;51.660;-0.100;2023-04-01T03:26:18;99378.88;;;8.19;69.73
61761;BME280;47664;51.660;-0.100;2023-04-01T03:28:46;99380.77;;;7.82;70.79
61761;BME280;47664;51.660;-0.100;2023-04-01T03:31:13;99386.08;;;7.71;70.54
61761;BME280;47664;51.660;-0.100;2023-04-01T03:33:40;99385.54;;;7.78;71.81
61761;BME280;47664;51.660;-0.100;2023-04-01T03:36:08;99385.58;;;7.23;71.39
61761;BME280;47664;51.660;-0.100;2023-04-01T03:38:35;99386.12;;;7.78;71.42
61761;BME280;47664;51.660;-0.100;2023-04-01T03:41:03;99390.62;;;7.61;71.93
61761;BME280;47664;51.660;-0.100;2023-04-01T03:43:31;99389.32;;;7.83;71.77
61761;BME280;47664;51.660;-0.100;2023-04-01T03:45:58;99394.71;;;8.24;70.44
61761;BME280;47664;51.660;-0.100;2023-04-01T03:48:25;99395.93;;;8.10;70.14
61761;BME280;47664;51.660;-0.100;2023-04-01T03:50:52;99400.60;;;8.30;70.20
61761;BME280;47664;51.660;-0.100;2023-04-01T03:53:19;99403.25;;;8.20;69.22
61761;BME280;47664;51.660;-0.100;2023-04-01T03:55:46;99406.13;;;7.69;70.57
61761;BME280;47664;51.660;-0.100;2023-04-01T03:58:13;99410.77;;;7.82;70.37
61761;BME280;47664;51.660;-0.100;2023-04-01T04:00:40;99413.64;;;7.97;70.34
61761;BME280;47664;51.660;-0.100;2023-04-01T04:03:07;99415.47;;;7.31;70.26
61761;BME280;47664;51.660;-0.100;2023-04-01T04:05:34;99417.91;;;7.87;70.37
61761;BME280;47664;51.660;-0.100;2023-04-01T04:08:02;99423.52;;;7.33;69.97
61761;BME280;47664;51.660;-0.100;2023-04-01T04:10:30;99425.45;;;8.40;69.57
61761;BME280;47664;51.660;-0.100;2023-04-01T04:12:57;99428.68;;;8.20;68.33
61761;BME280;47664;51.660;-0.100;2023-04-01T04:15:25;99431.47;;;8.12;69.13
61761;BME280;47664;51.660;-0.100;2023-04-01T04:17:51;99435.77;;;6.89;72.32
61761;BME280;47664;51.660;-0.100;2023-04-01T04:20:19;99439.55;;;7.04;71.55
61761;BME280;47664;51.660;-0.100;2023-04-01T04:22:45;99439.71;;;7.42;70.20
61761;BME280;47664;51.660;-0.100;2023-04-01T04:25:12;99444.07;;;7.24;70.09
61761;BME280;47664;51.660;-0.100;2023-04-01T04:27:39;99449.18;;;7.70;68.96
61761;BME280;47664;51.660;-0.100;2023-04-01T04:30:08;99452.59;;;7.83;68.66
61761;BME280;47664;51.660;-0.100;2023-04-01T04:32:36;99453.09;;;7.83;69.43
61761;BME280;47664;51.660;-0.100;2023-04-01T04:35:04;99453.29;;;7.16;68.97
61761;BME280;47664;51.660;-0.100;2023-04-01T04:37:32;99455.18;;;7.83;68.92
61761;BME280;47664;51.660;-0.100;2023-04-01T04:39:59;99453.44;;;7.27;69.23
61761;BME280;47664;51.660;-0.100;2023-04-01T04:42:26;99458.79;;;7.67;67.90
61761;BME280;47664;51.660;-0.100;2023-04-01T04:44:53;99461.22;;;8.37;67.05
61761;BME280;47664;51.660;-0.100;2023-04-01T04:47:21;99463.75;;;8.19;67.22
61761;BME280;47664;51.660;-0.100;2023-04-01T04:49:47;99463.97;;;8.08;67.45
61761;BME280;47664;51.660;-0.100;2023-04-01T04:52:14;99469.67;;;8.60;66.49
61761;BME280;47664;51.660;-0.100;2023-04-01T04:54:41;99471.64;;;8.37;66.51
61761;BME280;47664;51.660;-0.100;2023-04-01T04:57:08;99472.76;;;7.55;67.41
61761;BME280;47664;51.660;-0.100;2023-04-01T04:59:35;99478.52;;;8.57;66.34
61761;BME280;47664;51.660;-0.100;2023-04-01T05:02:02;99480.18;;;8.70;66.01
61761;BME280;47664;51.660;-0.100;2023-04-01T05:04:29;99482.94;;;8.64;66.14
61761;BME280;47664;51.660;-0.100;2023-04-01T05:06:56;99481.22;;;7.83;67.46
61761;BME280;47664;51.660;-0.100;2023-04-01T05:09:24;99489.60;;;8.15;66.79
61761;BME280;47664;51.660;-0.100;2023-04-01T05:11:51;99490.80;;;8.21;66.91
61761;BME280;47664;51.660;-0.100;2023-04-01T05:14:18;99497.73;;;8.27;66.20
61761;BME280;47664;51.660;-0.100;2023-04-01T05:16:45;99502.72;;;8.44;66.35
61761;BME280;47664;51.660;-0.100;2023-04-01T05:19:12;99507.82;;;7.75;66.30
61761;BME280;47664;51.660;-0.100;2023-04-01T05:21:39;99510.82;;;8.50;66.14
61761;BME280;47664;51.660;-0.100;2023-04-01T05:24:08;99512.58;;;7.48;66.86
61761;BME280;47664;51.660;-0.100;2023-04-01T05:26:35;99517.15;;;7.54;69.48
61761;BME280;47664;51.660;-0.100;2023-04-01T05:29:04;99520.50;;;7.00;69.85
61761;BME280;47664;51.660;-0.100;2023-04-01T05:31:31;99523.05;;;7.49;70.21
61761;BME280;47664;51.660;-0.100;2023-04-01T05:33:58;99527.64;;;7.46;70.13
61761;BME280;47664;51.660;-0.100;2023-04-01T05:36:25;99526.94;;;7.64;69.58
61761;BME280;47664;51.660;-0.100;2023-04-01T05:38:55;99527.21;;;7.48;69.79
61761;BME280;47664;51.660;-0.100;2023-04-01T05:41:23;99527.86;;;7.70;69.25
61761;BME280;47664;51.660;-0.100;2023-04-01T05:43:50;99528.93;;;7.26;70.51
61761;BME280;47664;51.660;-0.100;2023-04-01T05:46:17;99531.64;;;6.53;71.59
61761;BME280;47664;51.660;-0.100;2023-04-01T05:48:44;99533.02;;;6.90;71.60
61761;BME280;47664;51.660;-0.100;2023-04-01T05:51:13;99535.21;;;7.16;70.86
61761;BME280;47664;51.660;-0.100;2023-04-01T05:53:41;99539.23;;;6.73;72.00
61761;BME280;47664;51.660;-0.100;2023-04-01T05:56:09;99546.18;;;7.10;71.01
61761;BME280;47664;51.660;-0.100;2023-04-01T05:58:36;99547.09;;;6.95;71.60
61761;BME280;47664;51.660;-0.100;2023-04-01T06:01:05;99553.80;;;6.25;71.44
61761;BME280;47664;51.660;-0.100;2023-04-01T06:03:33;99559.28;;;7.12;70.48
61761;BME280;47664;51.660;-0.100;2023-04-01T06:06:01;99559.82;;;6.87;70.34
61761;BME280;47664;51.660;-0.100;2023-04-01T06:08:30;99561.53;;;7.22;70.25
61761;BME280;47664;51.660;-0.100;2023-04-01T06:11:10;99561.26;;;7.52;69.49
61761;BME280;47664;51.660;-0.100;2023-04-01T06:13:57;99565.72;;;7.46;68.43
61761;BME280;47664;51.660;-0.100;2023-04-01T06:16:38;99565.54;;;8.39;66.86
61761;BME280;47664;51.660;-0.100;2023-04-01T06:19:23;99569.86;;;7.02;67.57
61761;BME280;47664;51.660;-0.100;2023-04-01T06:22:13;99575.89;;;7.41;69.81
61761;BME280;47664;51.660;-0.100;2023-04-01T06:24:57;99578.62;;;7.50;69.05
61761;BME280;47664;51.660;-0.100;2023-04-01T06:27:42;99585.82;;;7.14;70.50
61761;BME280;47664;51.660;-0.100;2023-04-01T06:30:30;99585.04;;;7.23;68.83
61761;BME280;47664;51.660;-0.100;2023-04-01T06:33:10;99590.67;;;6.72;70.61
61761;BME280;47664;51.660;-0.100;2023-04-01T06:35:54;99594.60;;;7.40;70.18
61761;BME280;47664;51.660;-0.100;2023-04-01T06:38:45;99595.04;;;7.46;69.35
61761;BME280;47664;51.660;-0.100;2023-04-01T06:42:28;99598.75;;;7.10;69.60
61761;BME280;47664;51.660;-0.100;2023-04-01T06:45:11;99599.46;;;7.83;68.21
61761;BME280;47664;51.660;-0.100;2023-04-01T06:47:56;99600.69;;;7.33;68.62
61761;BME280;47664;51.660;-0.100;2023-04-01T06:50:32;99601.24;;;7.61;69.79
61761;BME280;47664;51.660;-0.100;2023-04-01T06:53:10;99602.76;;;6.76;69.87
61761;BME280;47664;51.660;-0.100;2023-04-01T06:55:43;99601.53;;;7.92;68.74
61761;BME280;47664;51.660;-0.100;2023-04-01T06:58:16;99606.55;;;7.85;67.97
61761;BME280;47664;51.660;-0.100;2023-04-01T07:00:49;99610.76;;;7.07;69.85
61761;BME280;47664;51.660;-0.100;2023-04-01T07:03:21;99614.03;;;7.09;70.62
61761;BME280;47664;51.660;-0.100;2023-04-01T07:05:50;99619.15;;;7.09;71.41
61761;BME280;47664;51.660;-0.100;2023-04-01T07:08:21;99622.70;;;7.08;70.59
61761;BME280;47664;51.660;-0.100;2023-04-01T07:10:53;99630.26;;;8.00;68.87
61761;BME280;47664;51.660;-0.100;2023-04-01T07:13:25;99633.70;;;8.12;68.04
61761;BME280;47664;51.660;-0.100;2023-04-01T07:16:03;99636.58;;;7.86;67.32
61761;BME280;47664;51.660;-0.100;2023-04-01T07:18:36;99639.68;;;7.50;67.51
61761;BME280;47664;51.660;-0.100;2023-04-01T07:21:14;99640.39;;;6.84;68.00
61761;BME280;47664;51.660;-0.100;2023-04-01T07:23:45;99649.01;;;7.54;68.48
61761;BME280;47664;51.660;-0.100;2023-04-01T07:26:18;99652.52;;;7.79;67.26
61761;BME280;47664;51.660;-0.100;2023-04-01T07:28:46;99653.04;;;7.67;67.55
61761;BME280;47664;51.660;-0.100;2023-04-01T07:31:22;99655.14;;;7.30;69.19
61761;BME280;47664;51.660;-0.100;2023-04-01T07:33:59;99662.85;;;7.72;68.11
61761;BME280;47664;51.660;-0.100;2023-04-01T07:36:33;99665.74;;;7.43;68.09
61761;BME280;47664;51.660;-0.100;2023-04-01T07:39:09;99668.85;;;7.22;68.91
61761;BME280;47664;51.660;-0.100;2023-04-01T07:41:49;99673.75;;;6.88;70.19
61761;BME280;47664;51.660;-0.100;2023-04-01T07:44:25;99679.40;;;7.50;69.11
61761;BME280;47664;51.660;-0.100;2023-04-01T07:47:05;99682.39;;;7.86;68.76
61761;BME280;47664;51.660;-0.100;2023-04-01T07:49:45;99683.05;;;8.00;67.95
61761;BME280;47664;51.660;-0.100;2023-04-01T07:52:21;99686.94;;;7.38;68.39
61761;BME280;47664;51.660;-0.100;2023-04-01T07:54:56;99692.10;;;7.42;68.42
61761;BME280;47664;51.660;-0.100;2023-04-01T07:57:33;99691.40;;;6.87;70.41
61761;BME280;47664;51.660;-0.100;2023-04-01T08:00:11;99696.04;;;7.56;69.46
61761;BME280;47664;51.660;-0.100;2023-04-01T08:02:53;99699.59;;;8.01;68.53
61761;BME280;47664;51.660;-0.100;2023-04-01T08:05:27;99702.57;;;7.29;68.74
61761;BME280;47664;51.660;-0.100;2023-04-01T08:08:02;99707.04;;;7.54;68.42
61761;BME280;47664;51.660;-0.100;2023-04-01T08:10:39;99710.61;;;7.99;67.96
61761;BME280;47664;51.660;-0.100;2023-04-01T08:13:14;99712.13;;;7.20;67.01
61761;BME280;47664;51.660;-0.100;2023-04-01T08:15:52;99713.59;;;8.36;66.07
61761;BME280;47664;51.660;-0.100;2023-04-01T08:18:30;99719.21;;;8.92;65.10
61761;BME280;47664;51.660;-0.100;2023-04-01T08:21:02;99722.71;;;8.28;64.84
61761;BME280;47664;51.660;-0.100;2023-04-01T08:23:36;99726.09;;;8.46;66.00
61761;BME280;47664;51.660;-0.100;2023-04-01T08:26:08;99727.32;;;7.89;65.48
61761;BME280;47664;51.660;-0.100;2023-04-01T08:28:40;99729.04;;;8.56;64.40
61761;BME280;47664;51.660;-0.100;2023-04-01T08:31:12;99733.23;;;7.72;64.95
61761;BME280;47664;51.660;-0.100;2023-04-01T08:33:42;99740.21;;;7.92;65.94
61761;BME280;47664;51.660;-0.100;2023-04-01T08:36:14;99738.47;;;7.73;66.74
61761;BME280;47664;51.660;-0.100;2023-04-01T08:38:46;99741.83;;;8.59;65.46
61761;BME280;47664;51.660;-0.100;2023-04-01T08:41:33;99741.99;;;8.81;65.02
61761;BME280;47664;51.660;-0.100;2023-04-01T08:44:22;99747.95;;;7.95;65.03
61761;BME280;47664;51.660;-0.100;2023-04-01T08:49:18;99753.02;;;8.37;66.62
61761;BME280;47664;51.660;-0.100;2023-04-01T08:52:22;99757.09;;;7.89;67.51
61761;BME280;47664;51.660;-0.100;2023-04-01T08:55:10;99760.30;;;8.10;67.36
61761;BME280;47664;51.660;-0.100;2023-04-01T08:57:56;99764.88;;;8.21;67.25
61761;BME280;47664;51.660;-0.100;2023-04-01T09:00:33;99767.68;;;7.35;68.53
61761;BME280;47664;51.660;-0.100;2023-04-01T09:03:44;99773.34;;;7.53;66.62
61761;BME280;47664;51.660;-0.100;2023-04-01T09:06:27;99779.23;;;7.80;66.35
61761;BME280;47664;51.660;-0.100;2023-04-01T09:09:17;99781.06;;;8.06;66.06
61761;BME280;47664;51.660;-0.100;2023-04-01T09:12:10;99784.48;;;8.42;65.77
61761;BME280;47664;51.660;-0.100;2023-04-01T09:14:58;99785.08;;;7.88;65.91
61761;BME280;47664;51.660;-0.100;2023-04-01T09:17:48;99790.62;;;8.72;64.81
61761;BME280;47664;51.660;-0.100;2023-04-01T09:20:29;99792.82;;;8.58;64.56
61761;BME280;47664;51.660;-0.100;2023-04-01T09:23:15;99794.11;;;8.34;63.68
61761;BME280;47664;51.660;-0.100;2023-04-01T09:25:58;99799.00;;;8.71;64.05
61761;BME280;47664;51.660;-0.100;2023-04-01T09:28:41;99804.46;;;8.68;63.53
61761;BME280;47664;51.660;-0.100;2023-04-01T09:31:20;99807.12;;;8.54;64.24
61761;BME280;47664;51.660;-0.100;2023-04-01T09:35:06;99809.39;;;8.90;64.13
61761;BME280;47664;51.660;-0.100;2023-04-01T09:37:52;99814.73;;;8.57;63.97
61761;BME280;47664;51.660;-0.100;2023-04-01T09:40:31;99815.74;;;8.46;64.02
61761;BME280;47664;51.660;-0.100;2023-04-01T09:43:18;99821.76;;;7.83;65.27
61761;BME280;47664;51.660;-0.100;2023-04-01T09:46:04;99825.56;;;8.51;65.55
61761;BME280;47664;51.660;-0.100;2023-04-01T09:48:50;99825.15;;;8.08;65.75
61761;BME280;47664;51.660;-0.100;2023-04-01T09:51:29;99830.98;;;8.29;65.99
61761;BME280;47664;51.660;-0.100;2023-04-01T09:54:13;99836.82;;;7.70;67.33
61761;BME280;47664;51.660;-0.100;2023-04-01T09:59:09;99847.05;;;8.40;67.46
61761;BME280;47664;51.660;-0.100;2023-04-01T10:03:00;99850.85;;;7.86;67.33
61761;BME280;47664;51.660;-0.100;2023-04-01T10:08:33;99860.46;;;8.81;66.45
61761;BME280;47664;51.660;-0.100;2023-04-01T10:11:15;99861.09;;;8.14;64.81
61761;BME280;47664;51.660;-0.100;2023-04-01T10:14:07;99861.28;;;8.04;65.79
61761;BME280;47664;51.660;-0.100;2023-04-01T10:17:20;99866.94;;;8.56;66.19
61761;BME280;47664;51.660;-0.100;2023-04-01T10:20:12;99868.69;;;8.58;65.48
61761;BME280;47664;51.660;-0.100;2023-04-01T10:23:12;99870.34;;;8.41;65.61
61761;BME280;47664;51.660;-0.100;2023-04-01T10:25:57;99872.53;;;8.71;65.10
61761;BME280;47664;51.660;-0.100;2023-04-01T10:28:51;99876.38;;;8.16;65.42
61761;BME280;47664;51.660;-0.100;2023-04-01T10:31:50;99884.81;;;8.37;65.56
61761;BME280;47664;51.660;-0.100;2023-04-01T10:34:47;99882.27;;;8.02;66.36
61761;BME280;47664;51.660;-0.100;2023-04-01T10:37:58;99892.60;;;7.93;66.99
61761;BME280;47664;51.660;-0.100;2023-04-01T10:40:38;99895.74;;;7.76;67.12
61761;BME280;47664;51.660;-0.100;2023-04-01T10:44:08;99906.28;;;7.46;67.74
61761;BME280;47664;51.660;-0.100;2023-04-01T10:46:55;99911.14;;;7.53;67.67
61761;BME280;47664;51.660;-0.100;2023-04-01T10:49:43;99916.40;;;7.64;67.89
61761;BME280;47664;51.660;-0.100;2023-04-01T10:52:45;99922.24;;;7.64;67.36
61761;BME280;47664;51.660;-0.100;2023-04-01T10:56:43;99927.48;;;8.38;67.49
61761;BME280;47664;51.660;-0.100;2023-04-01T11:00:31;99930.49;;;8.27;65.74
61761;BME280;47664;51.660;-0.100;2023-04-01T11:06:41;99934.76;;;8.55;66.29
61761;BME280;47664;51.660;-0.100;2023-04-01T11:09:41;99937.88;;;7.73;66.58
61761;BME280;47664;51.660;-0.100;2023-04-01T11:14:42;99944.39;;;8.62;67.08
61761;BME280;47664;51.660;-0.100;2023-04-01T11:17:33;99943.53;;;8.22;65.94
61761;BME280;47664;51.660;-0.100;2023-04-01T11:20:51;99947.77;;;7.33;65.96
61761;BME280;47664;51.660;-0.100;2023-04-01T11:23:35;99951.72;;;8.30;65.05
61761;BME280;47664;51.660;-0.100;2023-04-01T11:26:08;99958.95;;;7.36;66.07
61761;BME280;47664;51.660;-0.100;2023-04-01T11:29:25;99964.95;;;7.98;66.70
61761;BME280;47664;51.660;-0.100;2023-04-01T11:32:06;99970.58;;;7.89;66.86
61761;BME280;47664;51.660;-0.100;2023-04-01T11:34:49;99971.36;;;8.31;65.98
61761;BME280;47664;51.660;-0.100;2023-04-01T11:37:28;99969.96;;;8.47;64.65
61761;BME280;47664;51.660;-0.100;2023-04-01T11:40:09;99971.50;;;8.57;64.11
61761;BME280;47664;51.660;-0.100;2023-04-01T11:42:46;99972.31;;;8.74;62.53
61761;BME280;47664;51.660;-0.100;2023-04-01T11:45:23;99977.90;;;7.99;62.98
61761;BME280;47664;51.660;-0.100;2023-04-01T11:48:09;99985.07;;;9.42;61.89
61761;BME280;47664;51.660;-0.100;2023-04-01T11:50:55;99986.30;;;9.41;61.66
61761;BME280;47664;51.660;-0.100;2023-04-01T11:53:36;99991.06;;;9.27;61.08
61761;BME280;47664;51.660;-0.100;2023-04-01T11:56:18;100000.47;;;9.94;59.92
61761;BME280;47664;51.660;-0.100;2023-04-01T11:59:12;100000.66;;;9.60;59.00
61761;BME280;47664;51.660;-0.100;2023-04-01T12:01:56;100012.25;;;9.40;60.51
61761;BME280;47664;51.660;-0.100;2023-04-01T12:04:40;100009.16;;;9.34;60.02
61761;BME280;47664;51.660;-0.100;2023-04-01T12:07:21;100015.79;;;8.73;60.67
61761;BME280;47664;51.660;-0.100;2023-04-01T12:09:56;100015.46;;;9.06;59.74
61761;BME280;47664;51.660;-0.100;2023-04-01T12:12:32;100015.10;;;9.69;59.90
61761;BME280;47664;51.660;-0.100;2023-04-01T12:15:17;100020.95;;;9.00;59.43
61761;BME280;47664;51.660;-0.100;2023-04-01T12:17:52;100021.65;;;9.87;58.05
61761;BME280;47664;51.660;-0.100;2023-04-01T12:20:30;100027.80;;;9.81;57.41
61761;BME280;47664;51.660;-0.100;2023-04-01T12:23:13;100030.23;;;9.68;56.96
61761;BME280;47664;51.660;-0.100;2023-04-01T12:26:03;100030.38;;;9.70;59.45
61761;BME280;47664;51.660;-0.100;2023-04-01T12:28:45;100038.11;;;9.74;59.85
61761;BME280;47664;51.660;-0.100;2023-04-01T12:31:26;100042.01;;;9.03;58.98
61761;BME280;47664;51.660;-0.100;2023-04-01T12:34:09;100045.23;;;9.13;59.86
61761;BME280;47664;51.660;-0.100;2023-04-01T12:36:50;100040.95;;;8.93;60.53
61761;BME280;47664;51.660;-0.100;2023-04-01T12:39:39;100047.70;;;9.06;60.99
61761;BME280;47664;51.660;-0.100;2023-04-01T12:42:21;100053.42;;;9.29;60.01
61761;BME280;47664;51.660;-0.100;2023-04-01T12:45:03;100054.39;;;9.58;59.66
61761;BME280;47664;51.660;-0.100;2023-04-01T12:47:55;100061.57;;;9.33;60.84
61761;BME280;47664;51.660;-0.100;2023-04-01T12:50:46;100062.43;;;9.20;60.23
61761;BME280;47664;51.660;-0.100;2023-04-01T12:53:30;100068.38;;;9.19;59.78
61761;BME280;47664;51.660;-0.100;2023-04-01T12:56:02;100072.60;;;9.67;58.98
61761;BME280;47664;51.660;-0.100;2023-04-01T12:59:28;100076.99;;;9.63;59.44
61761;BME280;47664;51.660;-0.100;2023-04-01T13:02:04;100078.40;;;9.24;60.09
61761;BME280;47664;51.660;-0.100;2023-04-01T13:04:51;100090.82;;;9.22;60.61
61761;BME280;47664;51.660;-0.100;2023-04-01T13:07:34;100089.84;;;9.12;59.77
61761;BME280;47664;51.660;-0.100;2023-04-01T13:10:17;100092.16;;;9.27;59.42
61761;BME280;47664;51.660;-0.100;2023-04-01T13:15:13;100100.41;;;8.51;60.23
61761;BME280;47664;51.660;-0.100;2023-04-01T13:17:50;100101.69;;;8.07;61.13
61761;BME280;47664;51.660;-0.100;2023-04-01T13:20:28;100109.83;;;8.35;61.42
61761;BME280;47664;51.660;-0.100;2023-04-01T13:23:08;100110.68;;;8.89;61.07
61761;BME280;47664;51.660;-0.100;2023-04-01T13:25:45;100110.14;;;9.14;59.64
61761;BME280;47664;51.660;-0.100;2023-04-01T13:28:18;100119.85;;;8.42;59.67
61761;BME280;47664;51.660;-0.100;2023-04-01T13:30:52;100119.78;;;9.11;59.69
61761;BME280;47664;51.660;-0.100;2023-04-01T13:33:30;100119.99;;;8.88;58.80
61761;BME280;47664;51.660;-0.100;2023-04-01T13:36:13;100128.46;;;8.06;59.51
61761;BME280;47664;51.660;-0.100;2023-04-01T13:38:57;100133.26;;;8.75;58.43
61761;BME280;47664;51.660;-0.100;2023-04-01T13:41:40;100131.62;;;8.40;59.90
61761;BME280;47664;51.660;-0.100;2023-04-01T13:44:16;100134.33;;;8.58;60.38
61761;BME280;47664;51.660;-0.100;2023-04-01T13:47:07;100135.19;;;8.45;60.97
61761;BME280;47664;51.660;-0.100;2023-04-01T13:49:52;100138.10;;;8.33;61.88
61761;BME280;47664;51.660;-0.100;2023-04-01T13:52:39;100146.91;;;8.43;61.63
61761;BME280;47664;51.660;-0.100;2023-04-01T13:55:22;100150.40;;;8.21;62.14
61761;BME280;47664;51.660;-0.100;2023-04-01T13:58:07;100155.93;;;8.22;61.71
61761;BME280;47664;51.660;-0.100;2023-04-01T14:00:50;100164.08;;;8.59;61.52
61761;BME280;47664;51.660;-0.100;2023-04-01T14:03:32;100166.43;;;8.62;59.54
61761;BME280;47664;51.660;-0.100;2023-04-01T14:06:15;100167.61;;;7.76;60.29